Terminal Aerodrome Forecast
Issued by NWS

Home | Current Version | Previous Version | Text Only | Print | Product List | Glossary On
Versions: 1 2 3 4 5 6 7 8 9 10 11 12
912
FTUS45 KRIW 041739
TAFLND
TAF
KLND 041739Z 0418/0518 22009KT P6SM SCT100 WS020/27045KT
     FM050200 25018G28KT P6SM BKN100 WS015/25050KT
     FM051000 29015G25KT P6SM BKN050 WS018/26045KT
     FM051500 31012KT P6SM SCT070 WS015/27035KT=

USA.gov is the U.S. government's official web portal to all federal, state and local government web resources and services.